Time;durP1;ratioP1;P1;durP2;ratioP2;P2;SDS_P1;SDS_P2;PMS_P1;PMS_P2;Temp;Humidity;BMP_temperature;BMP_pressure;BME280_temperature;BME280_humidity;BME280_pressure;Samples;Min_cycle;Max_cycle;Signal;HPM_P1;HPM_P2
2023/12/13 00:00:27;;;;;;;1.20;0.90;;;21.30;57.60;;;;;;5092640;28;20724;-67
2023/12/13 00:02:53;;;;;;;1.10;0.97;;;21.20;57.50;;;;;;5092733;28;20482;-65
2023/12/13 00:05:18;;;;;;;1.30;1.03;;;21.30;57.60;;;;;;5092550;28;20546;-66
2023/12/13 00:07:44;;;;;;;0.93;0.80;;;21.30;57.60;;;;;;5092008;28;20173;-67
2023/12/13 00:10:10;;;;;;;1.07;0.97;;;21.20;57.50;;;;;;5092543;28;20177;-67
2023/12/13 00:12:35;;;;;;;1.33;1.23;;;21.20;57.50;;;;;;5092531;28;20588;-67
2023/12/13 00:15:01;;;;;;;1.77;1.37;;;21.20;57.50;;;;;;5092468;28;20184;-67
2023/12/13 00:17:27;;;;;;;1.43;1.00;;;21.30;57.50;;;;;;5092156;28;20714;-67
2023/12/13 00:19:52;;;;;;;1.10;0.90;;;21.20;57.50;;;;;;5092269;28;20273;-67
2023/12/13 00:22:18;;;;;;;1.73;1.07;;;21.20;57.50;;;;;;5092303;28;20243;-67
2023/12/13 00:24:44;;;;;;;1.57;1.10;;;21.20;57.50;;;;;;5092237;28;20212;-67
2023/12/13 00:27:09;;;;;;;1.20;1.10;;;21.20;57.50;;;;;;5092437;28;20193;-65
2023/12/13 00:29:35;;;;;;;1.20;1.00;;;21.20;58.10;;;;;;5092186;28;20660;-66
2023/12/13 00:32:01;;;;;;;1.10;0.90;;;21.20;57.50;;;;;;5092082;28;20169;-66
2023/12/13 00:34:26;;;;;;;1.50;1.40;;;21.20;57.50;;;;;;5092044;28;20174;-67
2023/12/13 00:36:52;;;;;;;1.03;0.93;;;21.20;57.50;;;;;;5091004;28;20190;-66
2023/12/13 00:39:18;;;;;;;1.07;0.87;;;21.20;57.50;;;;;;5071683;28;20573;-67
2023/12/13 00:41:43;;;;;;;1.30;1.00;;;21.20;57.50;;;;;;5071747;28;20174;-66
2023/12/13 00:44:09;;;;;;;1.10;0.80;;;21.20;57.50;;;;;;5071673;28;20166;-67
2023/12/13 00:46:34;;;;;;;1.03;0.90;;;21.20;57.50;;;;;;5071477;28;20743;-66
2023/12/13 00:49:00;;;;;;;1.57;1.20;;;21.20;57.50;;;;;;5071603;28;20174;-67
2023/12/13 00:51:26;;;;;;;1.30;1.00;;;21.20;57.50;;;;;;5071426;28;20170;-66
2023/12/13 00:53:52;;;;;;;1.03;0.93;;;21.20;57.50;;;;;;5071438;28;20170;-66
2023/12/13 00:56:17;;;;;;;1.40;1.27;;;21.20;57.50;;;;;;5071287;28;20427;-67
2023/12/13 00:58:45;;;;;;;1.10;0.80;;;21.20;57.50;;;;;;5071234;28;20672;-66
2023/12/13 01:01:10;;;;;;;1.20;1.10;;;21.20;57.50;;;;;;5071322;28;20167;-67
2023/12/13 01:03:36;;;;;;;1.13;1.03;;;21.20;57.50;;;;;;5071214;28;20415;-67
2023/12/13 01:06:06;;;;;;;1.00;0.90;;;21.20;57.50;;;;;;5071114;28;20218;-67
2023/12/13 01:08:31;;;;;;;0.97;0.80;;;21.20;57.50;;;;;;5071194;28;20158;-67
2023/12/13 01:10:57;;;;;;;1.20;0.90;;;21.20;57.50;;;;;;5071101;28;20416;-65
2023/12/13 01:13:22;;;;;;;1.27;1.00;;;21.20;57.50;;;;;;5070995;28;20629;-67
2023/12/13 01:15:48;;;;;;;1.00;0.90;;;21.20;57.50;;;;;;5070970;28;20617;-66
2023/12/13 01:18:13;;;;;;;1.50;1.40;;;21.20;57.50;;;;;;5070780;28;20276;-67
2023/12/13 01:20:40;;;;;;;1.47;1.30;;;21.20;57.50;;;;;;5069985;28;20636;-67
2023/12/13 01:23:06;;;;;;;0.90;0.70;;;21.20;57.50;;;;;;5070866;28;20595;-66
2023/12/13 01:25:31;;;;;;;1.10;0.90;;;21.20;57.50;;;;;;5070677;28;20424;-66
2023/12/13 01:27:57;;;;;;;1.30;1.10;;;21.20;57.50;;;;;;5070787;28;20236;-66
2023/12/13 01:30:23;;;;;;;1.13;0.90;;;21.20;57.70;;;;;;5069410;28;20569;-67
2023/12/13 01:32:49;;;;;;;0.97;0.87;;;21.20;57.50;;;;;;5070672;28;20201;-66
2023/12/13 01:35:15;;;;;;;1.10;0.93;;;21.20;57.50;;;;;;5070605;28;20432;-67
2023/12/13 01:37:40;;;;;;;1.00;0.87;;;21.20;57.50;;;;;;5070585;28;20166;-67
2023/12/13 01:40:07;;;;;;;1.23;1.13;;;21.20;57.50;;;;;;5070534;28;20244;-66
2023/12/13 01:42:36;;;;;;;1.10;0.90;;;21.10;57.40;;;;;;5070728;28;20179;-67
2023/12/13 01:45:02;;;;;;;1.27;0.93;;;21.10;57.40;;;;;;5070461;28;20401;-67
2023/12/13 01:47:28;;;;;;;1.00;0.80;;;21.10;57.40;;;;;;5070300;28;20440;-66
2023/12/13 01:49:53;;;;;;;1.10;0.90;;;21.20;57.50;;;;;;5068890;28;20424;-67
2023/12/13 01:52:19;;;;;;;1.10;0.80;;;21.20;57.50;;;;;;5070659;28;20179;-67
2023/12/13 01:54:46;;;;;;;1.03;0.90;;;21.20;57.50;;;;;;5070326;28;20204;-67
2023/12/13 01:57:14;;;;;;;1.00;0.90;;;21.10;57.40;;;;;;5070242;28;20193;-66
2023/12/13 01:59:41;;;;;;;1.30;1.20;;;21.10;57.40;;;;;;5070453;28;20456;-67
2023/12/13 02:02:07;;;;;;;1.00;0.87;;;21.10;57.40;;;;;;5070294;28;20411;-67
2023/12/13 02:04:35;;;;;;;1.13;0.90;;;21.20;57.50;;;;;;5070220;28;20404;-67
2023/12/13 02:07:01;;;;;;;1.00;0.90;;;21.10;57.40;;;;;;5070293;28;20432;-67
2023/12/13 02:09:27;;;;;;;1.30;1.00;;;21.10;57.40;;;;;;5070113;28;20943;-67
2023/12/13 02:11:53;;;;;;;1.40;1.10;;;21.10;57.40;;;;;;5070181;28;20409;-67
2023/12/13 02:14:19;;;;;;;1.27;1.10;;;21.10;57.40;;;;;;5070142;28;20177;-66
2023/12/13 02:16:45;;;;;;;1.33;1.10;;;21.10;57.50;;;;;;5069981;28;21263;-67
2023/12/13 02:19:10;;;;;;;1.13;1.03;;;21.10;57.40;;;;;;5069887;28;20201;-67
2023/12/13 02:21:37;;;;;;;1.10;0.90;;;21.10;57.40;;;;;;5069976;28;20173;-67
2023/12/13 02:24:07;;;;;;;1.40;1.10;;;21.10;57.40;;;;;;5070234;28;20197;-67
2023/12/13 02:26:38;;;;;;;1.53;1.13;;;21.10;57.50;;;;;;5069876;28;20473;-66
2023/12/13 02:29:04;;;;;;;1.40;1.03;;;21.10;57.40;;;;;;5069896;28;20393;-67
2023/12/13 02:31:30;;;;;;;1.10;0.93;;;21.10;57.40;;;;;;5069626;28;20420;-67
2023/12/13 02:33:56;;;;;;;1.93;0.97;;;21.10;57.40;;;;;;5069845;28;20781;-66
2023/12/13 02:36:21;;;;;;;0.90;0.80;;;21.10;57.40;;;;;;5069840;28;20200;-66
2023/12/13 02:38:47;;;;;;;1.47;1.00;;;21.10;57.40;;;;;;5069751;28;20546;-66
2023/12/13 02:41:13;;;;;;;1.27;1.00;;;21.10;57.40;;;;;;5069801;28;20178;-66
2023/12/13 02:43:38;;;;;;;1.20;1.00;;;21.10;57.50;;;;;;5068442;28;20275;-65
2023/12/13 02:46:04;;;;;;;1.33;1.00;;;21.10;57.50;;;;;;5069715;28;20210;-66
2023/12/13 02:48:30;;;;;;;1.20;0.90;;;21.10;57.40;;;;;;5069779;28;20656;-66
2023/12/13 02:50:56;;;;;;;1.20;0.93;;;21.10;57.50;;;;;;5069714;28;20453;-66
2023/12/13 02:53:23;;;;;;;1.20;1.00;;;21.10;57.40;;;;;;5070067;28;20181;-65
2023/12/13 02:55:48;;;;;;;1.00;0.90;;;21.10;58.00;;;;;;5068229;28;20205;-66
2023/12/13 02:58:14;;;;;;;1.20;1.10;;;21.10;57.40;;;;;;5068230;28;20421;-67
2023/12/13 03:00:40;;;;;;;1.17;1.03;;;21.10;57.40;;;;;;5069624;28;20276;-66
2023/12/13 03:03:05;;;;;;;1.03;0.87;;;21.10;57.50;;;;;;5069649;28;20177;-66
2023/12/13 03:05:31;;;;;;;1.30;1.00;;;21.10;57.40;;;;;;5069539;28;20669;-66
2023/12/13 03:07:56;;;;;;;1.20;0.90;;;21.10;57.50;;;;;;5069551;28;20174;-66
2023/12/13 03:10:22;;;;;;;1.20;0.90;;;21.10;57.50;;;;;;5069596;28;20181;-66
2023/12/13 03:12:48;;;;;;;1.10;0.90;;;21.10;57.50;;;;;;5069461;28;20691;-66
2023/12/13 03:15:13;;;;;;;1.70;1.00;;;21.10;57.50;;;;;;5069483;28;20205;-66
2023/12/13 03:17:39;;;;;;;1.23;1.00;;;21.10;57.50;;;;;;5069541;28;20193;-64
2023/12/13 03:20:06;;;;;;;0.93;0.83;;;21.10;57.50;;;;;;5069435;28;20665;-67
2023/12/13 03:22:32;;;;;;;1.00;0.90;;;21.10;57.40;;;;;;5069446;28;20162;-66
2023/12/13 03:24:57;;;;;;;1.00;0.90;;;21.10;57.50;;;;;;5068029;28;20460;-66
2023/12/13 03:27:23;;;;;;;1.17;0.80;;;21.10;57.40;;;;;;5067960;28;20213;-66
2023/12/13 03:29:49;;;;;;;1.13;0.80;;;21.10;57.50;;;;;;5069442;28;20175;-66
2023/12/13 03:32:14;;;;;;;1.20;1.00;;;21.10;57.50;;;;;;5069397;28;20251;-66
2023/12/13 03:34:40;;;;;;;1.10;1.00;;;21.10;57.50;;;;;;5067938;28;20586;-66
2023/12/13 03:37:06;;;;;;;0.90;0.80;;;21.10;57.50;;;;;;5069303;28;20194;-66
2023/12/13 03:39:33;;;;;;;1.10;0.90;;;21.10;57.50;;;;;;5069260;28;20495;-65
2023/12/13 03:41:59;;;;;;;1.07;0.90;;;21.10;57.50;;;;;;5069281;28;20783;-66
2023/12/13 03:44:24;;;;;;;1.30;0.90;;;21.10;57.50;;;;;;5072596;28;20408;-66
2023/12/13 03:46:50;;;;;;;1.30;1.00;;;21.10;57.50;;;;;;5072709;28;20743;-67
2023/12/13 03:49:16;;;;;;;1.70;1.10;;;21.10;57.50;;;;;;5072780;28;20202;-66
2023/12/13 03:51:46;;;;;;;1.00;0.80;;;21.10;57.50;;;;;;5072700;28;20221;-66
2023/12/13 03:54:12;;;;;;;1.10;1.00;;;21.10;57.50;;;;;;5072615;28;20439;-66
2023/12/13 03:56:38;;;;;;;1.13;1.03;;;21.10;57.50;;;;;;5072534;28;20428;-66
2023/12/13 03:59:03;;;;;;;1.23;0.90;;;21.10;57.50;;;;;;5072529;28;20498;-66
2023/12/13 04:01:29;;;;;;;1.43;1.00;;;21.10;57.50;;;;;;5072438;28;20174;-66
2023/12/13 04:03:55;;;;;;;1.10;0.90;;;21.10;57.50;;;;;;5072559;28;20224;-67
2023/12/13 04:06:20;;;;;;;1.00;0.80;;;21.10;57.50;;;;;;5072378;28;20186;-66
2023/12/13 04:08:46;;;;;;;1.00;0.73;;;21.10;57.50;;;;;;5072446;28;20174;-67
2023/12/13 04:11:11;;;;;;;1.30;0.83;;;21.10;57.50;;;;;;5072324;28;20175;-66
2023/12/13 04:13:37;;;;;;;1.03;0.90;;;21.10;57.50;;;;;;5072253;28;20181;-66
2023/12/13 04:16:03;;;;;;;1.10;1.00;;;21.10;57.50;;;;;;5072479;28;20343;-66
2023/12/13 04:18:28;;;;;;;0.90;0.80;;;21.10;57.50;;;;;;5072162;28;20195;-66
2023/12/13 04:20:54;;;;;;;1.00;0.87;;;21.10;57.50;;;;;;5072051;28;20210;-66
2023/12/13 04:23:19;;;;;;;1.00;0.80;;;21.00;57.40;;;;;;5070821;28;20182;-66
2023/12/13 04:25:45;;;;;;;1.00;0.90;;;21.00;57.40;;;;;;5072024;28;20680;-67
2023/12/13 04:28:11;;;;;;;1.00;0.83;;;21.10;57.50;;;;;;5071966;28;20253;-67
2023/12/13 04:30:36;;;;;;;0.90;0.80;;;21.10;57.50;;;;;;5071207;28;20178;-66
2023/12/13 04:33:02;;;;;;;1.00;0.83;;;21.00;57.40;;;;;;5071807;28;20189;-66
2023/12/13 04:35:28;;;;;;;1.00;0.80;;;21.10;57.50;;;;;;5068883;28;20285;-66
2023/12/13 04:37:54;;;;;;;1.43;1.00;;;21.00;57.50;;;;;;5070018;28;20166;-67
2023/12/13 04:40:19;;;;;;;1.00;0.80;;;21.10;57.50;;;;;;5069809;28;20471;-66
2023/12/13 04:42:45;;;;;;;1.10;0.70;;;21.00;57.40;;;;;;5069951;28;20176;-66
2023/12/13 04:45:11;;;;;;;1.23;0.90;;;21.00;57.40;;;;;;5071358;28;20166;-66
2023/12/13 04:47:36;;;;;;;1.20;1.10;;;21.10;57.50;;;;;;5071841;28;20174;-64
2023/12/13 04:50:02;;;;;;;1.10;0.80;;;21.10;57.50;;;;;;5071596;28;20174;-66
2023/12/13 04:52:28;;;;;;;1.40;0.97;;;21.10;57.50;;;;;;5071669;28;20648;-66
2023/12/13 04:54:53;;;;;;;1.10;0.90;;;21.10;57.50;;;;;;5071538;28;20458;-66
2023/12/13 04:57:19;;;;;;;1.00;0.80;;;21.10;57.50;;;;;;5071497;28;20704;-67
2023/12/13 04:59:44;;;;;;;1.00;0.90;;;21.00;57.50;;;;;;5071419;28;20201;-66
2023/12/13 05:02:10;;;;;;;1.00;0.80;;;21.10;57.50;;;;;;5071403;28;20205;-66
2023/12/13 05:04:36;;;;;;;0.90;0.70;;;21.00;57.40;;;;;;5071380;28;20172;-66
2023/12/13 05:07:01;;;;;;;1.30;0.80;;;21.00;57.40;;;;;;5071221;28;20198;-66
2023/12/13 05:09:27;;;;;;;1.10;1.00;;;21.10;57.60;;;;;;5071246;28;20186;-65
2023/12/13 05:11:52;;;;;;;1.37;1.27;;;21.00;57.50;;;;;;5071245;28;20196;-66
2023/12/13 05:14:18;;;;;;;1.67;1.00;;;21.10;57.50;;;;;;5071255;28;20257;-66
2023/12/13 05:16:44;;;;;;;1.00;0.80;;;21.10;57.50;;;;;;5071219;28;20653;-66
2023/12/13 05:19:09;;;;;;;1.00;0.80;;;21.00;57.50;;;;;;5070897;28;20214;-66
2023/12/13 05:21:35;;;;;;;1.00;0.77;;;21.10;57.60;;;;;;5070728;28;20177;-66
2023/12/13 05:24:00;;;;;;;0.97;0.83;;;21.10;57.60;;;;;;5071005;28;20182;-66
2023/12/13 05:26:26;;;;;;;1.00;0.90;;;21.10;57.60;;;;;;5070897;28;20877;-66
2023/12/13 05:28:51;;;;;;;1.20;0.90;;;21.10;57.50;;;;;;5070985;28;20181;-67
2023/12/13 05:31:24;;;;;;;1.00;0.80;;;21.10;57.50;;;;;;5070874;28;20166;-66
2023/12/13 05:33:50;;;;;;;0.90;0.80;;;21.10;57.50;;;;;;5071099;28;20171;-66
2023/12/13 05:36:15;;;;;;;1.03;0.90;;;21.10;57.50;;;;;;5070696;28;21084;-66
2023/12/13 05:38:42;;;;;;;1.30;0.80;;;21.10;57.50;;;;;;5070082;28;20408;-66
2023/12/13 05:41:07;;;;;;;1.30;0.83;;;21.10;57.50;;;;;;5070656;28;20199;-66
2023/12/13 05:43:36;;;;;;;0.87;0.73;;;21.10;57.50;;;;;;5069308;28;20511;-66
2023/12/13 05:46:04;;;;;;;1.00;0.90;;;21.10;57.50;;;;;;5070528;28;20577;-65
2023/12/13 05:48:29;;;;;;;0.80;0.70;;;21.10;57.40;;;;;;5069231;28;20423;-66
2023/12/13 05:50:55;;;;;;;1.13;0.80;;;21.10;57.40;;;;;;5070606;28;20903;-66
2023/12/13 05:53:20;;;;;;;0.97;0.80;;;21.10;57.40;;;;;;5070485;28;20184;-66
2023/12/13 05:55:46;;;;;;;1.37;0.90;;;21.10;57.40;;;;;;5069683;28;20198;-66
2023/12/13 05:58:11;;;;;;;0.93;0.80;;;21.10;57.40;;;;;;5070810;28;20171;-67
2023/12/13 06:00:37;;;;;;;1.00;0.83;;;21.10;57.40;;;;;;5070418;28;20251;-66
2023/12/13 06:03:03;;;;;;;1.20;0.90;;;21.10;57.40;;;;;;5069794;28;20186;-67
2023/12/13 06:05:28;;;;;;;1.10;1.00;;;21.10;57.40;;;;;;5070102;28;20182;-66
2023/12/13 06:07:54;;;;;;;0.87;0.70;;;21.10;57.40;;;;;;5070363;28;20178;-66
2023/12/13 06:10:20;;;;;;;1.03;0.73;;;21.10;57.40;;;;;;5070221;28;20209;-66
2023/12/13 06:12:46;;;;;;;0.90;0.77;;;21.10;57.50;;;;;;5070079;28;20243;-66
2023/12/13 06:15:11;;;;;;;0.90;0.80;;;21.10;57.50;;;;;;5070199;28;20409;-66
2023/12/13 06:17:37;;;;;;;1.10;1.00;;;21.10;57.50;;;;;;5069968;28;20277;-64
2023/12/13 06:20:03;;;;;;;1.07;0.80;;;21.10;57.60;;;;;;5070134;28;20685;-66
2023/12/13 06:22:28;;;;;;;2.07;0.97;;;21.10;57.50;;;;;;5070118;28;20170;-66
2023/12/13 06:24:54;;;;;;;2.27;1.00;;;21.10;57.50;;;;;;5070038;28;20470;-66
2023/12/13 06:27:19;;;;;;;2.80;1.00;;;21.10;57.60;;;;;;5070140;28;20699;-66
2023/12/13 06:29:45;;;;;;;1.77;0.90;;;21.10;57.50;;;;;;5070240;28;20175;-66
2023/12/13 06:32:11;;;;;;;1.10;0.80;;;21.10;57.50;;;;;;5069800;28;20587;-66
2023/12/13 06:34:37;;;;;;;1.10;0.90;;;21.10;57.50;;;;;;5070084;28;20204;-66
2023/12/13 06:37:02;;;;;;;1.00;0.70;;;21.10;57.40;;;;;;5070159;28;20805;-65
2023/12/13 06:39:28;;;;;;;1.00;0.80;;;21.10;57.50;;;;;;5070503;28;20292;-65
2023/12/13 06:41:54;;;;;;;1.17;0.90;;;21.20;57.50;;;;;;5070263;28;20693;-65
2023/12/13 06:44:21;;;;;;;2.17;0.97;;;21.20;57.50;;;;;;5070081;28;20205;-65
2023/12/13 06:46:46;;;;;;;3.43;1.20;;;21.20;57.50;;;;;;5070718;28;20266;-66
2023/12/13 06:49:12;;;;;;;1.10;0.80;;;21.20;57.50;;;;;;5068778;28;20515;-66
2023/12/13 06:51:38;;;;;;;1.13;0.87;;;21.20;57.40;;;;;;5070542;28;20190;-65
2023/12/13 06:54:03;;;;;;;2.27;0.80;;;21.30;57.50;;;;;;5070445;28;20668;-66
2023/12/13 06:56:29;;;;;;;1.77;0.93;;;21.30;57.50;;;;;;5070453;28;20194;-65
2023/12/13 06:58:54;;;;;;;2.10;1.00;;;21.30;57.50;;;;;;5070491;28;20182;-66
2023/12/13 07:01:22;;;;;;;1.20;1.00;;;21.30;57.50;;;;;;5070413;28;20544;-65
2023/12/13 07:03:47;;;;;;;1.50;0.80;;;21.30;57.50;;;;;;5070427;28;20169;-66
2023/12/13 07:06:16;;;;;;;0.93;0.70;;;21.30;57.50;;;;;;5070328;28;20786;-65
2023/12/13 07:08:42;;;;;;;0.97;0.80;;;21.30;57.40;;;;;;5070381;28;20162;-66
2023/12/13 07:11:07;;;;;;;2.10;0.60;;;21.30;57.40;;;;;;5070292;28;20409;-65
2023/12/13 07:13:33;;;;;;;1.00;0.90;;;21.30;57.40;;;;;;5070302;28;20929;-66
2023/12/13 07:15:58;;;;;;;1.20;0.80;;;21.30;57.40;;;;;;5070201;28;20201;-66
2023/12/13 07:18:25;;;;;;;1.00;0.87;;;21.30;57.40;;;;;;5072177;28;20195;-66
2023/12/13 07:20:51;;;;;;;1.40;0.90;;;21.30;57.40;;;;;;5073906;28;20222;-66
2023/12/13 07:23:16;;;;;;;1.60;0.90;;;21.30;57.40;;;;;;5074004;28;20834;-66
2023/12/13 07:25:42;;;;;;;1.50;0.90;;;21.30;57.40;;;;;;5073881;28;20212;-66
2023/12/13 07:28:08;;;;;;;1.27;1.17;;;21.40;57.40;;;;;;5073854;28;20348;-64
2023/12/13 07:30:34;;;;;;;1.20;0.80;;;21.30;57.30;;;;;;5073838;28;20257;-66
2023/12/13 07:32:59;;;;;;;1.50;0.80;;;21.40;57.40;;;;;;5073788;28;20747;-66
2023/12/13 07:35:26;;;;;;;1.50;0.87;;;21.40;57.40;;;;;;5073672;28;20491;-66
2023/12/13 07:37:52;;;;;;;1.20;0.93;;;21.40;57.40;;;;;;5073737;28;20209;-65
2023/12/13 07:40:18;;;;;;;1.00;0.70;;;21.40;57.40;;;;;;5073619;28;21009;-66
2023/12/13 07:42:46;;;;;;;1.10;0.83;;;21.40;57.40;;;;;;5072266;28;20186;-65
2023/12/13 07:45:13;;;;;;;1.00;0.80;;;21.40;57.40;;;;;;5073510;28;20162;-64
2023/12/13 07:47:39;;;;;;;2.10;0.93;;;21.40;57.40;;;;;;5073559;28;20908;-65
2023/12/13 07:50:06;;;;;;;1.10;1.00;;;21.40;57.40;;;;;;5073832;28;20458;-66
2023/12/13 07:52:32;;;;;;;1.00;0.83;;;21.40;57.40;;;;;;5073528;28;20205;-65
2023/12/13 07:54:57;;;;;;;1.30;0.90;;;21.40;57.40;;;;;;5073381;28;20421;-65
2023/12/13 07:57:23;;;;;;;0.90;0.70;;;21.40;57.40;;;;;;5073339;28;20432;-66
2023/12/13 07:59:49;;;;;;;2.63;0.87;;;21.40;57.40;;;;;;5072359;28;20224;-66
2023/12/13 08:02:14;;;;;;;1.07;0.93;;;21.40;57.40;;;;;;5073334;28;20245;-66
2023/12/13 08:04:43;;;;;;;1.03;0.70;;;21.40;57.40;;;;;;5055273;28;20552;-65
2023/12/13 08:07:09;;;;;;;1.20;0.80;;;21.40;57.40;;;;;;5072085;28;20197;-65
2023/12/13 08:09:34;;;;;;;2.23;0.90;;;21.40;57.00;;;;;;5071909;28;20409;-65
2023/12/13 08:12:00;;;;;;;1.20;0.80;;;21.40;57.40;;;;;;5071801;28;20174;-66
2023/12/13 08:14:30;;;;;;;1.10;1.00;;;21.40;57.40;;;;;;5071776;28;20265;-65
2023/12/13 08:16:57;;;;;;;1.03;0.73;;;21.40;57.40;;;;;;5071562;28;20210;-66
2023/12/13 08:19:22;;;;;;;1.10;0.87;;;21.40;57.40;;;;;;5054997;28;20598;-66
2023/12/13 08:21:48;;;;;;;1.00;0.80;;;21.50;57.40;;;;;;5071641;28;20543;-66
2023/12/13 08:24:14;;;;;;;1.10;0.77;;;21.40;57.40;;;;;;5055255;28;20184;-65
2023/12/13 08:26:39;;;;;;;0.90;0.77;;;21.50;57.50;;;;;;5072778;28;20198;-65
2023/12/13 08:29:05;;;;;;;1.10;0.80;;;21.40;57.40;;;;;;5070954;28;20232;-66
2023/12/13 08:31:31;;;;;;;1.40;0.90;;;21.40;57.40;;;;;;5071414;28;20568;-65
2023/12/13 08:33:57;;;;;;;1.10;0.80;;;21.40;57.40;;;;;;5072688;28;20178;-66
2023/12/13 08:36:23;;;;;;;1.47;0.90;;;21.40;57.40;;;;;;5071353;28;20194;-65
2023/12/13 08:38:48;;;;;;;1.47;0.70;;;21.40;58.00;;;;;;5072520;28;20201;-65
2023/12/13 08:41:15;;;;;;;1.10;0.70;;;21.40;57.40;;;;;;5072656;28;20397;-66
2023/12/13 08:43:41;;;;;;;0.80;0.60;;;21.40;57.50;;;;;;5072759;28;20171;-65
2023/12/13 08:46:07;;;;;;;1.63;0.90;;;21.40;57.40;;;;;;5072656;28;20536;-66
2023/12/13 08:48:32;;;;;;;1.20;0.83;;;21.40;57.50;;;;;;5072636;28;20174;-65
2023/12/13 08:50:59;;;;;;;1.53;1.30;;;21.40;57.50;;;;;;5071045;28;21107;-65
2023/12/13 08:53:25;;;;;;;0.93;0.80;;;21.50;57.50;;;;;;5071051;28;20474;-66
2023/12/13 08:55:51;;;;;;;1.17;0.80;;;21.40;57.50;;;;;;5072409;28;20486;-66
2023/12/13 08:58:16;;;;;;;1.00;0.80;;;21.40;57.50;;;;;;5072127;28;21085;-65
2023/12/13 09:00:42;;;;;;;0.90;0.70;;;21.40;57.50;;;;;;5072111;28;20452;-66
2023/12/13 09:03:08;;;;;;;1.47;1.00;;;21.40;57.50;;;;;;5072176;28;20178;-66
2023/12/13 09:05:35;;;;;;;1.13;0.80;;;21.50;57.60;;;;;;5072134;28;20656;-65
2023/12/13 09:08:01;;;;;;;2.00;0.93;;;21.40;57.50;;;;;;5072343;28;20707;-63
2023/12/13 09:10:26;;;;;;;1.20;0.80;;;21.50;57.60;;;;;;5071919;28;20553;-66
2023/12/13 09:12:52;;;;;;;1.20;0.90;;;21.40;57.50;;;;;;5071967;28;20217;-65
2023/12/13 09:15:18;;;;;;;1.67;0.80;;;21.40;57.60;;;;;;5053875;28;20170;-66
2023/12/13 09:17:47;;;;;;;1.17;0.83;;;21.40;57.50;;;;;;5070501;28;20186;-65
2023/12/13 09:20:14;;;;;;;1.27;0.90;;;21.40;57.50;;;;;;5071779;28;20722;-66
2023/12/13 09:22:42;;;;;;;1.00;0.80;;;21.40;57.50;;;;;;5071669;28;20435;-65
2023/12/13 09:25:08;;;;;;;1.03;0.70;;;21.40;57.50;;;;;;5071808;28;20416;-66
2023/12/13 09:27:35;;;;;;;1.00;0.70;;;21.40;57.50;;;;;;5070269;28;20433;-66
2023/12/13 09:30:01;;;;;;;1.30;1.10;;;21.40;57.60;;;;;;5070528;28;20465;-65
2023/12/13 09:32:27;;;;;;;1.00;0.80;;;21.40;57.60;;;;;;5071456;28;20535;-66
2023/12/13 09:34:52;;;;;;;1.60;0.87;;;21.40;57.60;;;;;;5053565;28;20431;-65
2023/12/13 09:37:18;;;;;;;1.30;0.70;;;21.40;57.60;;;;;;5070038;28;20186;-66
2023/12/13 09:39:45;;;;;;;1.00;0.70;;;21.50;57.60;;;;;;5069658;28;20567;-64
2023/12/13 09:42:12;;;;;;;0.80;0.70;;;21.40;57.60;;;;;;5069667;28;20178;-66
2023/12/13 09:44:39;;;;;;;1.93;1.00;;;21.40;57.60;;;;;;5069979;28;20409;-66
2023/12/13 09:47:06;;;;;;;0.90;0.70;;;21.40;57.60;;;;;;5071222;28;20490;-66
2023/12/13 09:49:36;;;;;;;1.10;0.90;;;21.40;57.60;;;;;;5069890;28;20500;-66
2023/12/13 09:52:07;;;;;;;1.37;0.90;;;21.40;57.60;;;;;;5071199;28;20432;-66
2023/12/13 09:54:34;;;;;;;1.00;0.80;;;21.40;57.60;;;;;;5053248;28;20797;-66
2023/12/13 09:56:59;;;;;;;1.00;0.90;;;21.40;57.60;;;;;;5069973;28;20433;-66
2023/12/13 09:59:25;;;;;;;1.13;0.80;;;21.50;57.70;;;;;;5069727;28;20502;-66
2023/12/13 10:01:51;;;;;;;1.00;0.70;;;21.40;58.10;;;;;;5069732;28;20208;-66
2023/12/13 10:04:17;;;;;;;1.50;1.00;;;21.40;57.60;;;;;;5069678;28;20198;-66
2023/12/13 10:06:45;;;;;;;1.00;0.70;;;21.40;57.60;;;;;;5069581;28;20463;-66
2023/12/13 10:09:11;;;;;;;0.90;0.80;;;21.40;57.60;;;;;;5069843;28;20427;-66
2023/12/13 10:11:37;;;;;;;0.80;0.63;;;21.50;57.70;;;;;;5069511;28;20409;-65
2023/12/13 10:14:03;;;;;;;1.13;0.70;;;21.40;57.60;;;;;;5070932;28;20410;-65
2023/12/13 10:16:28;;;;;;;1.10;1.00;;;21.40;57.60;;;;;;5071060;28;20511;-65
2023/12/13 10:18:55;;;;;;;1.40;0.87;;;21.40;57.60;;;;;;5069490;28;20756;-66
2023/12/13 10:21:20;;;;;;;1.20;0.70;;;21.40;57.60;;;;;;5069512;28;20223;-66
2023/12/13 10:23:46;;;;;;;0.90;0.70;;;21.50;57.70;;;;;;5053229;28;20769;-66
2023/12/13 10:26:12;;;;;;;1.00;0.87;;;21.40;57.70;;;;;;5070702;28;20190;-66
2023/12/13 10:28:38;;;;;;;2.47;0.90;;;21.40;57.60;;;;;;5069700;28;20162;-66
2023/12/13 10:31:04;;;;;;;1.17;0.90;;;21.40;57.60;;;;;;5070969;28;20178;-66
2023/12/13 10:33:30;;;;;;;1.50;0.70;;;21.40;57.60;;;;;;5069361;28;20562;-65
2023/12/13 10:36:01;;;;;;;0.90;0.70;;;21.40;57.60;;;;;;5070640;28;20201;-65
2023/12/13 10:38:28;;;;;;;1.37;0.73;;;21.40;57.60;;;;;;5069407;28;20408;-66
2023/12/13 10:40:53;;;;;;;0.90;0.70;;;21.40;57.60;;;;;;5069315;28;20526;-65
2023/12/13 10:43:20;;;;;;;0.97;0.70;;;21.40;57.70;;;;;;5070856;28;20765;-66
2023/12/13 10:46:05;;;;;;;0.90;0.80;;;21.40;57.70;;;;;;5070572;28;20664;-65
2023/12/13 10:48:35;;;;;;;1.00;0.70;;;21.40;57.60;;;;;;5070619;28;20396;-65
2023/12/13 10:51:02;;;;;;;0.93;0.80;;;21.40;57.70;;;;;;5070853;28;20534;-66
2023/12/13 10:53:32;;;;;;;0.90;0.70;;;21.40;57.70;;;;;;5073375;28;20409;-66
2023/12/13 10:55:59;;;;;;;1.37;0.70;;;21.40;57.70;;;;;;5073166;28;20777;-66
2023/12/13 10:58:26;;;;;;;0.90;0.73;;;21.40;57.70;;;;;;5073121;28;20413;-65
2023/12/13 11:00:52;;;;;;;0.97;0.80;;;21.40;57.70;;;;;;5073148;28;20448;-66
2023/12/13 11:03:22;;;;;;;1.10;0.80;;;21.40;57.70;;;;;;5073022;28;20410;-66
2023/12/13 11:05:48;;;;;;;2.07;0.80;;;21.40;57.70;;;;;;5072812;28;20425;-66
2023/12/13 11:08:16;;;;;;;0.80;0.60;;;21.40;57.70;;;;;;5056279;28;20404;-66
2023/12/13 11:10:53;;;;;;;1.87;0.83;;;21.40;57.70;;;;;;5074551;28;20412;-65
2023/12/13 11:13:25;;;;;;;1.00;0.80;;;21.40;57.70;;;;;;5072810;28;20495;-66
2023/12/13 11:15:50;;;;;;;1.07;0.70;;;21.40;57.70;;;;;;5074166;28;20435;-66
2023/12/13 11:18:16;;;;;;;0.90;0.70;;;21.40;57.70;;;;;;5072671;28;20444;-66
2023/12/13 11:20:47;;;;;;;1.00;0.80;;;21.40;57.70;;;;;;5055943;28;20243;-66
2023/12/13 11:23:14;;;;;;;1.00;0.70;;;21.40;57.70;;;;;;5074007;28;20166;-66
2023/12/13 11:25:40;;;;;;;0.93;0.83;;;21.40;57.70;;;;;;5073939;28;20435;-66
2023/12/13 11:28:06;;;;;;;1.10;0.80;;;21.40;57.70;;;;;;5074476;28;20886;-67
2023/12/13 11:30:32;;;;;;;1.10;0.80;;;21.40;57.70;;;;;;5074149;28;20213;-66
2023/12/13 11:32:58;;;;;;;1.00;0.90;;;21.40;57.70;;;;;;5073896;28;20204;-66
2023/12/13 11:35:24;;;;;;;1.00;0.70;;;21.40;57.70;;;;;;5072434;28;20400;-67
2023/12/13 11:37:52;;;;;;;1.00;0.80;;;21.40;57.70;;;;;;5056259;28;20687;-65
2023/12/13 11:40:18;;;;;;;1.10;0.73;;;21.40;57.70;;;;;;5073846;28;20464;-67
2023/12/13 11:42:45;;;;;;;1.00;0.80;;;21.40;57.70;;;;;;5072109;28;20419;-66
2023/12/13 11:45:10;;;;;;;1.20;0.80;;;21.40;57.70;;;;;;5072141;28;20428;-66
2023/12/13 11:47:38;;;;;;;0.90;0.70;;;21.40;57.70;;;;;;5071839;28;20436;-66
2023/12/13 11:50:04;;;;;;;1.00;0.70;;;21.40;57.70;;;;;;5073604;28;20182;-67
2023/12/13 11:52:29;;;;;;;0.80;0.60;;;21.40;57.70;;;;;;5074628;28;20419;-65
2023/12/13 11:54:57;;;;;;;1.30;0.73;;;21.40;57.70;;;;;;5091560;28;20901;-67
2023/12/13 11:57:22;;;;;;;0.90;0.70;;;21.40;57.70;;;;;;5089698;28;20236;-67
2023/12/13 11:59:49;;;;;;;0.93;0.60;;;21.40;57.70;;;;;;5089359;28;20475;-67
2023/12/13 12:02:16;;;;;;;1.10;0.70;;;21.40;57.70;;;;;;5089590;28;20227;-66
2023/12/13 12:04:43;;;;;;;0.90;0.70;;;21.40;57.70;;;;;;5090139;28;20490;-67
2023/12/13 12:07:14;;;;;;;1.00;0.63;;;21.40;57.70;;;;;;5092784;28;20432;-65
2023/12/13 12:09:40;;;;;;;1.00;0.80;;;21.50;57.80;;;;;;5091191;28;20439;-66
2023/12/13 12:12:08;;;;;;;1.00;0.70;;;21.40;57.70;;;;;;5092519;28;20416;-66
2023/12/13 12:14:34;;;;;;;1.10;0.70;;;21.40;57.70;;;;;;5075134;28;20495;-66
2023/12/13 12:17:01;;;;;;;0.90;0.67;;;21.40;57.70;;;;;;5074957;28;21078;-66
2023/12/13 12:19:29;;;;;;;0.90;0.70;;;21.40;57.70;;;;;;5073985;28;20217;-66
2023/12/13 12:21:54;;;;;;;1.37;0.90;;;21.40;57.70;;;;;;5090967;28;20462;-66
2023/12/13 12:24:27;;;;;;;0.90;0.80;;;21.40;57.70;;;;;;5091014;28;20458;-65
2023/12/13 12:26:52;;;;;;;1.37;0.97;;;21.40;57.70;;;;;;5091922;28;20190;-66
2023/12/13 12:29:18;;;;;;;1.00;0.80;;;21.40;57.70;;;;;;5091088;28;20476;-65
2023/12/13 12:31:43;;;;;;;1.07;0.77;;;21.40;57.70;;;;;;5092230;28;20181;-67
2023/12/13 12:34:12;;;;;;;0.93;0.63;;;21.40;57.70;;;;;;5090285;28;20177;-66
2023/12/13 12:36:38;;;;;;;1.10;0.80;;;21.40;57.70;;;;;;5090561;28;20193;-66
2023/12/13 12:39:03;;;;;;;0.90;0.70;;;21.40;57.70;;;;;;5092009;28;20917;-66
2023/12/13 12:41:34;;;;;;;0.90;0.70;;;21.40;57.70;;;;;;5090545;28;20174;-66